Time;durP1;ratioP1;P1;durP2;ratioP2;P2;SDS_P1;SDS_P2;PMS_P1;PMS_P2;Temp;Humidity;BMP_temperature;BMP_pressure;BME280_temperature;BME280_humidity;BME280_pressure;Samples;Min_cycle;Max_cycle;Signal;HPM_P1;HPM_P2
2024/04/04 00:00:24;;;;;;;2.83;2.50;;;;;;;;;;5064859;28;20020;-62
2024/04/04 00:02:53;;;;;;;4.07;2.42;;;;;;;;;;5051122;28;20118;-62
2024/04/04 00:05:19;;;;;;;2.67;2.38;;;;;;;;;;5059580;28;20506;-66
2024/04/04 00:07:46;;;;;;;2.80;2.28;;;;;;;;;;5052050;28;20229;-62
2024/04/04 00:10:12;;;;;;;2.38;2.17;;;;;;;;;;5054570;28;20401;-62
2024/04/04 00:12:40;;;;;;;4.32;2.70;;;;;;;;;;5055193;28;20037;-62
2024/04/04 00:15:07;;;;;;;2.08;1.83;;;;;;;;;;5056145;28;20075;-62
2024/04/04 00:17:33;;;;;;;2.90;2.15;;;;;;;;;;5053367;28;20020;-62
2024/04/04 00:19:59;;;;;;;3.28;2.67;;;;;;;;;;5054782;28;20031;-62
2024/04/04 00:22:25;;;;;;;3.17;2.28;;;;;;;;;;5064892;28;20547;-62
2024/04/04 00:24:52;;;;;;;2.85;2.08;;;;;;;;;;5069702;28;20040;-62
2024/04/04 00:27:18;;;;;;;2.95;2.38;;;;;;;;;;5057252;28;20028;-62
2024/04/04 00:29:44;;;;;;;2.28;1.80;;;;;;;;;;5061805;28;20169;-62
2024/04/04 00:32:10;;;;;;;2.95;2.45;;;;;;;;;;5053317;28;20028;-62
2024/04/04 00:34:37;;;;;;;2.45;2.22;;;;;;;;;;5056394;28;20044;-62
2024/04/04 00:37:06;;;;;;;2.92;1.98;;;;;;;;;;5067965;28;20043;-61
2024/04/04 00:39:32;;;;;;;2.42;2.00;;;;;;;;;;5058107;28;20047;-62
2024/04/04 00:41:58;;;;;;;2.50;2.33;;;;;;;;;;5055907;28;20036;-62
2024/04/04 00:44:25;;;;;;;2.13;1.92;;;;;;;;;;5056777;28;20040;-62
2024/04/04 00:46:51;;;;;;;3.05;2.30;;;;;;;;;;5052213;28;20041;-62
2024/04/04 00:49:17;;;;;;;2.42;2.22;;;;;;;;;;5052215;28;20444;-62
2024/04/04 00:51:43;;;;;;;2.28;1.98;;;;;;;;;;5059161;28;20037;-67
2024/04/04 00:54:09;;;;;;;3.17;2.20;;;;;;;;;;5067324;28;20127;-68
2024/04/04 00:56:36;;;;;;;2.65;2.45;;;;;;;;;;5073863;28;20031;-66
2024/04/04 00:59:03;;;;;;;1.75;1.65;;;;;;;;;;5070892;28;20395;-68
2024/04/04 01:01:30;;;;;;;2.70;2.38;;;;;;;;;;5056375;28;20425;-67
2024/04/04 01:03:56;;;;;;;3.88;2.65;;;;;;;;;;5059145;28;20051;-66
2024/04/04 01:06:32;;;;;;;3.17;2.30;;;;;;;;;;5061817;28;20059;-66
2024/04/04 01:09:00;;;;;;;4.57;2.97;;;;;;;;;;5062138;28;20029;-67
2024/04/04 01:11:27;;;;;;;2.45;2.15;;;;;;;;;;5059226;28;20541;-67
2024/04/04 01:13:53;;;;;;;4.68;2.42;;;;;;;;;;5060775;28;20491;-67
2024/04/04 01:16:19;;;;;;;3.40;2.33;;;;;;;;;;5058170;28;20513;-67
2024/04/04 01:18:46;;;;;;;2.60;2.40;;;;;;;;;;5059005;28;20036;-66
2024/04/04 01:21:12;;;;;;;2.63;2.42;;;;;;;;;;5063662;28;20025;-66
2024/04/04 01:23:42;;;;;;;2.55;2.20;;;;;;;;;;5065293;28;20025;-67
2024/04/04 01:26:08;;;;;;;4.72;2.97;;;;;;;;;;5064243;28;20035;-68
2024/04/04 01:28:37;;;;;;;3.70;3.10;;;;;;;;;;5068743;28;20025;-67
2024/04/04 01:31:03;;;;;;;3.08;2.65;;;;;;;;;;5065175;28;20082;-67
2024/04/04 01:33:30;;;;;;;4.45;2.92;;;;;;;;;;5066276;28;20021;-69
2024/04/04 01:35:56;;;;;;;3.22;2.60;;;;;;;;;;5062130;28;20112;-68
2024/04/04 01:38:22;;;;;;;3.00;2.55;;;;;;;;;;5061327;28;20484;-67
2024/04/04 01:40:50;;;;;;;3.58;3.05;;;;;;;;;;5074032;28;20029;-66
2024/04/04 01:43:16;;;;;;;5.22;3.13;;;;;;;;;;5060633;28;20078;-66
2024/04/04 01:45:42;;;;;;;4.10;3.13;;;;;;;;;;5069521;28;20024;-67
2024/04/04 01:48:08;;;;;;;4.80;3.15;;;;;;;;;;5066313;28;20028;-67
2024/04/04 01:50:34;;;;;;;4.75;3.63;;;;;;;;;;5058598;28;20025;-67
2024/04/04 01:53:00;;;;;;;3.28;2.60;;;;;;;;;;5065570;28;20040;-66
2024/04/04 01:55:29;;;;;;;4.13;2.80;;;;;;;;;;5058661;28;20029;-66
2024/04/04 01:57:55;;;;;;;4.80;3.42;;;;;;;;;;5061954;28;20040;-66
2024/04/04 02:00:22;;;;;;;6.20;3.63;;;;;;;;;;5063801;28;20029;-67
2024/04/04 02:02:48;;;;;;;5.35;4.13;;;;;;;;;;5065244;28;20183;-67
2024/04/04 02:05:14;;;;;;;6.43;4.30;;;;;;;;;;5058357;28;20060;-67
2024/04/04 02:07:40;;;;;;;6.45;3.28;;;;;;;;;;5060719;28;20055;-68
2024/04/04 02:10:06;;;;;;;5.35;3.80;;;;;;;;;;5062427;28;20060;-67
2024/04/04 02:12:33;;;;;;;7.32;3.72;;;;;;;;;;5078346;28;20069;-67
2024/04/04 02:14:59;;;;;;;5.03;3.38;;;;;;;;;;5064570;28;20285;-67
2024/04/04 02:17:25;;;;;;;7.57;4.13;;;;;;;;;;5066556;28;20025;-68
2024/04/04 02:19:51;;;;;;;7.50;3.80;;;;;;;;;;5077959;28;20029;-67
2024/04/04 02:22:17;;;;;;;7.63;4.07;;;;;;;;;;5066262;28;20081;-67
2024/04/04 02:24:44;;;;;;;7.13;5.00;;;;;;;;;;5060869;28;20397;-67
2024/04/04 02:27:10;;;;;;;6.10;3.50;;;;;;;;;;5062174;28;20078;-67
2024/04/04 02:29:37;;;;;;;8.05;4.03;;;;;;;;;;5066405;28;20036;-66
2024/04/04 02:32:05;;;;;;;6.03;4.53;;;;;;;;;;5058490;28;20040;-67
2024/04/04 02:34:32;;;;;;;8.00;4.15;;;;;;;;;;5063366;28;20032;-67
2024/04/04 02:36:59;;;;;;;13.88;3.50;;;;;;;;;;5061770;28;20589;-66
2024/04/04 02:39:25;;;;;;;6.10;4.18;;;;;;;;;;5060717;28;20346;-67
2024/04/04 02:41:51;;;;;;;6.35;4.20;;;;;;;;;;5057070;28;20029;-67
2024/04/04 02:44:17;;;;;;;7.78;4.20;;;;;;;;;;5062863;28;20369;-67
2024/04/04 02:46:44;;;;;;;5.65;4.22;;;;;;;;;;5064873;28;20335;-67
2024/04/04 02:49:10;;;;;;;7.50;5.20;;;;;;;;;;5061340;28;20127;-66
2024/04/04 02:51:36;;;;;;;6.93;4.28;;;;;;;;;;5059409;28;20074;-68
2024/04/04 02:54:02;;;;;;;9.95;4.88;;;;;;;;;;5062410;28;21247;-68
2024/04/04 02:56:28;;;;;;;6.03;4.10;;;;;;;;;;5064138;28;20190;-68
2024/04/04 02:58:54;;;;;;;4.90;3.35;;;;;;;;;;5057776;28;20094;-62
2024/04/04 03:01:21;;;;;;;6.18;4.55;;;;;;;;;;5060254;28;20025;-61
2024/04/04 03:03:47;;;;;;;7.78;4.25;;;;;;;;;;5059034;28;20060;-65
2024/04/04 03:06:17;;;;;;;9.00;4.47;;;;;;;;;;5057883;28;20111;-62
2024/04/04 03:08:43;;;;;;;5.85;3.63;;;;;;;;;;5058378;28;20025;-61
2024/04/04 03:11:09;;;;;;;3.80;3.13;;;;;;;;;;5062468;28;20508;-61
2024/04/04 03:13:36;;;;;;;9.05;4.38;;;;;;;;;;5056896;28;20388;-62
2024/04/04 03:16:03;;;;;;;5.25;3.55;;;;;;;;;;5059351;28;20440;-61
2024/04/04 03:18:29;;;;;;;7.38;3.67;;;;;;;;;;5052497;28;20039;-61
2024/04/04 03:20:55;;;;;;;5.03;3.50;;;;;;;;;;5058588;28;20497;-61
2024/04/04 03:23:21;;;;;;;7.15;3.40;;;;;;;;;;5059145;28;20021;-67
2024/04/04 03:25:47;;;;;;;5.22;3.22;;;;;;;;;;5058250;28;20500;-67
2024/04/04 03:28:13;;;;;;;4.95;2.97;;;;;;;;;;5062670;28;20031;-66
2024/04/04 03:30:40;;;;;;;5.40;3.25;;;;;;;;;;5066392;28;20078;-67
2024/04/04 03:33:06;;;;;;;4.45;3.15;;;;;;;;;;5060268;28;20824;-67
2024/04/04 03:35:32;;;;;;;5.15;3.20;;;;;;;;;;5064385;28;20048;-67
2024/04/04 03:38:02;;;;;;;4.93;2.95;;;;;;;;;;5063790;28;20103;-66
2024/04/04 03:40:28;;;;;;;7.03;3.70;;;;;;;;;;5056599;28;20500;-67
2024/04/04 03:42:54;;;;;;;4.13;3.40;;;;;;;;;;5062624;28;20020;-67
2024/04/04 03:45:21;;;;;;;3.10;2.45;;;;;;;;;;5062137;28;20021;-67
2024/04/04 03:47:47;;;;;;;4.43;2.75;;;;;;;;;;5061120;28;20037;-66
2024/04/04 03:50:13;;;;;;;4.93;3.03;;;;;;;;;;5059160;28;20075;-66
2024/04/04 03:52:39;;;;;;;4.38;3.30;;;;;;;;;;5062806;28;20477;-66
2024/04/04 03:55:06;;;;;;;4.63;3.53;;;;;;;;;;5058734;28;20027;-67
2024/04/04 03:57:33;;;;;;;4.05;3.30;;;;;;;;;;5055982;28;20024;-61
2024/04/04 04:00:01;;;;;;;4.13;3.45;;;;;;;;;;5051626;28;20037;-61
2024/04/04 04:02:27;;;;;;;4.40;3.17;;;;;;;;;;5065403;28;20443;-66
2024/04/04 04:04:55;;;;;;;5.68;3.15;;;;;;;;;;5059375;28;20037;-66
2024/04/04 04:07:21;;;;;;;4.57;3.80;;;;;;;;;;5057768;28;20106;-66
2024/04/04 04:09:47;;;;;;;6.47;3.72;;;;;;;;;;5062702;28;20517;-67
2024/04/04 04:12:14;;;;;;;7.60;3.78;;;;;;;;;;5059744;28;20381;-67
2024/04/04 04:14:40;;;;;;;3.47;2.95;;;;;;;;;;5056961;28;20088;-66
2024/04/04 04:17:06;;;;;;;10.30;3.05;;;;;;;;;;5060266;28;20040;-66
2024/04/04 04:19:33;;;;;;;4.38;3.25;;;;;;;;;;5058975;28;20381;-66
2024/04/04 04:21:59;;;;;;;4.15;2.80;;;;;;;;;;5058682;28;20069;-66
2024/04/04 04:24:25;;;;;;;6.75;3.10;;;;;;;;;;5054600;28;20435;-61
2024/04/04 04:26:53;;;;;;;5.82;3.08;;;;;;;;;;5052918;28;20040;-61
2024/04/04 04:29:19;;;;;;;4.97;3.42;;;;;;;;;;5051283;28;20032;-66
2024/04/04 04:31:45;;;;;;;4.35;2.70;;;;;;;;;;5055750;28;20475;-61
2024/04/04 04:34:12;;;;;;;5.60;3.08;;;;;;;;;;5046370;28;20068;-61
2024/04/04 04:36:41;;;;;;;3.10;2.72;;;;;;;;;;5056119;28;20021;-61
2024/04/04 04:39:07;;;;;;;6.25;3.83;;;;;;;;;;5068774;28;20623;-61
2024/04/04 04:41:33;;;;;;;3.70;2.70;;;;;;;;;;5058304;28;20031;-61
2024/04/04 04:43:59;;;;;;;6.05;3.42;;;;;;;;;;5052712;28;20443;-61
2024/04/04 04:46:26;;;;;;;3.30;2.25;;;;;;;;;;5054719;28;20155;-61
2024/04/04 04:48:52;;;;;;;4.38;3.03;;;;;;;;;;5055398;28;20115;-61
2024/04/04 04:51:18;;;;;;;4.32;3.20;;;;;;;;;;5050123;28;20048;-61
2024/04/04 04:53:44;;;;;;;4.00;3.08;;;;;;;;;;5052685;28;20024;-62
2024/04/04 04:56:11;;;;;;;4.43;2.78;;;;;;;;;;5067744;28;20032;-61
2024/04/04 04:58:37;;;;;;;3.97;2.90;;;;;;;;;;5059107;28;20031;-61
2024/04/04 05:01:03;;;;;;;5.53;3.30;;;;;;;;;;5057865;28;20028;-61
2024/04/04 05:03:29;;;;;;;3.50;2.80;;;;;;;;;;5062246;28;20069;-61
2024/04/04 05:05:56;;;;;;;4.65;3.03;;;;;;;;;;5065626;28;20492;-61
2024/04/04 05:08:22;;;;;;;4.05;3.00;;;;;;;;;;5060788;28;20029;-66
2024/04/04 05:10:49;;;;;;;4.93;2.83;;;;;;;;;;5065791;28;20074;-65
2024/04/04 05:13:15;;;;;;;9.23;3.35;;;;;;;;;;5060906;28;20069;-66
2024/04/04 05:15:45;;;;;;;6.05;3.50;;;;;;;;;;5066866;28;20033;-66
2024/04/04 05:18:11;;;;;;;5.78;3.25;;;;;;;;;;5061563;28;20017;-66
2024/04/04 05:20:38;;;;;;;4.25;2.92;;;;;;;;;;5066193;28;20448;-66
2024/04/04 05:23:04;;;;;;;4.22;3.47;;;;;;;;;;5076072;28;20021;-66
2024/04/04 05:25:30;;;;;;;4.15;3.45;;;;;;;;;;5065602;28;20029;-66
2024/04/04 05:27:57;;;;;;;6.18;3.42;;;;;;;;;;5063948;28;20032;-60
2024/04/04 05:30:24;;;;;;;17.48;3.30;;;;;;;;;;5064433;28;20024;-61
2024/04/04 05:32:50;;;;;;;4.38;2.90;;;;;;;;;;5060578;28;20043;-61
2024/04/04 05:35:16;;;;;;;5.35;3.65;;;;;;;;;;5060613;28;20484;-61
2024/04/04 05:37:42;;;;;;;3.53;3.20;;;;;;;;;;5056110;28;20400;-62
2024/04/04 05:40:09;;;;;;;4.32;2.95;;;;;;;;;;5062409;28;20556;-61
2024/04/04 05:42:36;;;;;;;4.90;3.35;;;;;;;;;;5064204;28;20029;-61
2024/04/04 05:45:03;;;;;;;6.70;3.42;;;;;;;;;;5059671;28;20434;-61
2024/04/04 05:47:29;;;;;;;4.53;3.05;;;;;;;;;;5062087;28;20047;-61
2024/04/04 05:49:55;;;;;;;4.78;3.50;;;;;;;;;;5056376;28;20206;-61
2024/04/04 05:52:21;;;;;;;5.45;3.22;;;;;;;;;;5054518;28;20029;-62
2024/04/04 05:54:48;;;;;;;6.45;3.40;;;;;;;;;;5063729;28;20494;-61
2024/04/04 05:57:15;;;;;;;7.07;3.50;;;;;;;;;;5060952;28;20059;-61
2024/04/04 05:59:41;;;;;;;8.75;3.00;;;;;;;;;;5068192;28;20517;-61
2024/04/04 06:02:09;;;;;;;10.20;3.80;;;;;;;;;;5064333;28;20139;-61
2024/04/04 06:04:35;;;;;;;4.22;3.38;;;;;;;;;;5059778;28;20105;-62
2024/04/04 06:07:02;;;;;;;4.88;2.63;;;;;;;;;;5060510;28;20672;-61
2024/04/04 06:09:28;;;;;;;4.97;3.10;;;;;;;;;;5059997;28;20059;-62
2024/04/04 06:11:55;;;;;;;3.70;3.08;;;;;;;;;;5059655;28;20098;-61
2024/04/04 06:14:21;;;;;;;4.18;3.55;;;;;;;;;;5057875;28;20055;-67
2024/04/04 06:16:48;;;;;;;3.80;2.80;;;;;;;;;;5060065;28;20048;-67
2024/04/04 06:19:14;;;;;;;11.35;3.65;;;;;;;;;;5062332;28;20017;-66
2024/04/04 06:21:40;;;;;;;4.90;3.50;;;;;;;;;;5051206;28;20079;-66
2024/04/04 06:24:07;;;;;;;5.60;3.83;;;;;;;;;;5061846;28;20028;-67
2024/04/04 06:26:33;;;;;;;6.05;3.53;;;;;;;;;;5059825;28;20496;-65
2024/04/04 06:28:59;;;;;;;5.40;3.53;;;;;;;;;;5065231;28;20028;-66
2024/04/04 06:31:25;;;;;;;7.72;3.20;;;;;;;;;;5059919;28;20033;-67
2024/04/04 06:33:52;;;;;;;10.50;3.67;;;;;;;;;;5062396;28;20037;-66
2024/04/04 06:36:18;;;;;;;5.57;3.45;;;;;;;;;;5074528;28;20039;-67
2024/04/04 06:38:45;;;;;;;4.30;3.17;;;;;;;;;;5061051;28;20056;-66
2024/04/04 06:41:14;;;;;;;6.18;3.53;;;;;;;;;;5058743;28;20062;-68
2024/04/04 06:43:40;;;;;;;3.63;2.83;;;;;;;;;;5057122;28;20028;-68
2024/04/04 06:46:06;;;;;;;6.45;3.78;;;;;;;;;;5063486;28;20800;-66
2024/04/04 06:48:33;;;;;;;5.80;3.45;;;;;;;;;;5064865;28;20124;-63
2024/04/04 06:50:59;;;;;;;8.52;3.83;;;;;;;;;;5059083;28;20067;-63
2024/04/04 06:53:26;;;;;;;5.93;3.53;;;;;;;;;;5055916;28;20029;-63
2024/04/04 06:55:52;;;;;;;5.18;3.45;;;;;;;;;;5050889;28;20040;-63
2024/04/04 06:58:20;;;;;;;4.32;3.42;;;;;;;;;;5054462;28;20064;-63
2024/04/04 07:00:55;;;;;;;5.97;3.42;;;;;;;;;;5059837;28;20025;-63
2024/04/04 07:03:21;;;;;;;9.20;3.92;;;;;;;;;;5052898;28;20045;-62
2024/04/04 07:05:47;;;;;;;5.57;3.83;;;;;;;;;;5077023;28;20399;-66
2024/04/04 07:08:13;;;;;;;13.82;3.78;;;;;;;;;;5066904;28;20025;-66
2024/04/04 07:10:40;;;;;;;4.53;3.17;;;;;;;;;;5049871;28;20028;-68
2024/04/04 07:13:06;;;;;;;5.60;3.42;;;;;;;;;;5067146;28;20056;-67
2024/04/04 07:15:32;;;;;;;5.50;3.63;;;;;;;;;;5059305;28;20077;-66
2024/04/04 07:17:58;;;;;;;6.38;3.63;;;;;;;;;;5056472;28;20531;-66
2024/04/04 07:20:24;;;;;;;7.63;3.65;;;;;;;;;;5055252;28;20017;-65
2024/04/04 07:22:51;;;;;;;6.18;3.72;;;;;;;;;;5058862;28;20475;-66
2024/04/04 07:25:17;;;;;;;5.50;3.83;;;;;;;;;;5067515;28;20032;-67
2024/04/04 07:27:43;;;;;;;6.53;3.95;;;;;;;;;;5064929;28;20306;-70
2024/04/04 07:30:10;;;;;;;7.18;3.83;;;;;;;;;;5065969;28;20064;-67
2024/04/04 07:32:37;;;;;;;5.85;3.63;;;;;;;;;;5080171;28;20052;-67
2024/04/04 07:35:04;;;;;;;6.47;4.22;;;;;;;;;;5060842;28;20031;-67
2024/04/04 07:37:31;;;;;;;5.18;3.50;;;;;;;;;;5047568;28;20104;-62
2024/04/04 07:39:58;;;;;;;7.70;3.72;;;;;;;;;;5056629;28;20039;-62
2024/04/04 07:42:25;;;;;;;7.82;4.13;;;;;;;;;;5058959;28;20511;-62
2024/04/04 07:44:51;;;;;;;8.50;4.25;;;;;;;;;;5054143;28;20042;-62
2024/04/04 07:47:17;;;;;;;7.22;4.82;;;;;;;;;;5057359;28;20040;-62
2024/04/04 07:49:43;;;;;;;5.45;3.97;;;;;;;;;;5056605;28;20067;-62
2024/04/04 07:52:10;;;;;;;7.60;3.78;;;;;;;;;;5058361;28;20043;-63
2024/04/04 07:54:36;;;;;;;5.88;3.67;;;;;;;;;;5055078;28;21348;-62
2024/04/04 07:57:02;;;;;;;10.30;3.75;;;;;;;;;;5055858;28;20089;-62
2024/04/04 07:59:28;;;;;;;6.65;3.60;;;;;;;;;;5058518;28;20041;-63
2024/04/04 08:01:54;;;;;;;5.07;3.47;;;;;;;;;;5059587;28;20100;-62
2024/04/04 08:04:21;;;;;;;10.27;3.95;;;;;;;;;;5063935;28;20025;-62
2024/04/04 08:06:47;;;;;;;10.13;4.28;;;;;;;;;;5057476;28;20188;-66
2024/04/04 08:09:13;;;;;;;6.53;4.03;;;;;;;;;;5070609;28;20040;-62
2024/04/04 08:11:39;;;;;;;7.43;4.10;;;;;;;;;;5059271;28;20035;-67
2024/04/04 08:14:05;;;;;;;7.38;4.03;;;;;;;;;;5060582;28;20093;-66
2024/04/04 08:16:31;;;;;;;8.07;4.68;;;;;;;;;;5056290;28;20143;-66
2024/04/04 08:18:58;;;;;;;10.07;4.32;;;;;;;;;;5076910;28;20173;-66
2024/04/04 08:21:25;;;;;;;6.28;3.92;;;;;;;;;;5076412;28;20066;-66
2024/04/04 08:23:52;;;;;;;8.20;4.00;;;;;;;;;;5059939;28;20035;-67
2024/04/04 08:26:22;;;;;;;5.63;3.67;;;;;;;;;;5059974;28;20487;-69
2024/04/04 08:28:48;;;;;;;12.60;5.00;;;;;;;;;;5063376;28;20757;-68
2024/04/04 08:31:17;;;;;;;7.40;3.97;;;;;;;;;;5063642;28;20033;-66
2024/04/04 08:33:45;;;;;;;7.68;3.65;;;;;;;;;;5087960;28;20930;-62
2024/04/04 08:36:12;;;;;;;7.57;3.83;;;;;;;;;;5063812;28;20124;-62
2024/04/04 08:38:38;;;;;;;8.10;4.35;;;;;;;;;;5055533;28;20032;-62
2024/04/04 08:41:09;;;;;;;8.05;4.10;;;;;;;;;;5061128;28;20025;-62
2024/04/04 08:43:42;;;;;;;7.05;4.40;;;;;;;;;;5064276;28;20064;-62
2024/04/04 08:46:11;;;;;;;8.48;4.18;;;;;;;;;;5058362;28;20368;-62
2024/04/04 08:48:37;;;;;;;7.93;4.32;;;;;;;;;;5058107;28;20028;-62
2024/04/04 08:51:04;;;;;;;8.90;3.80;;;;;;;;;;5055073;28;20032;-62
2024/04/04 08:53:31;;;;;;;12.95;4.07;;;;;;;;;;5059879;28;20425;-62
2024/04/04 08:56:00;;;;;;;9.82;4.53;;;;;;;;;;5053911;28;20029;-62
2024/04/04 08:58:27;;;;;;;11.68;4.85;;;;;;;;;;5063102;28;20087;-62
2024/04/04 09:00:53;;;;;;;6.15;4.13;;;;;;;;;;5060378;28;20033;-63
2024/04/04 09:03:20;;;;;;;6.63;3.08;;;;;;;;;;5053203;28;20125;-62
2024/04/04 09:05:47;;;;;;;6.40;3.50;;;;;;;;;;5057248;28;20028;-62
2024/04/04 09:08:14;;;;;;;6.57;2.30;;;;;;;;;;5074694;28;20025;-62
2024/04/04 09:10:40;;;;;;;4.05;2.92;;;;;;;;;;5056256;28;20540;-69
2024/04/04 09:13:07;;;;;;;3.08;2.20;;;;;;;;;;5090110;28;20115;-67
2024/04/04 09:15:37;;;;;;;3.10;2.38;;;;;;;;;;5074365;28;20021;-69
2024/04/04 09:18:05;;;;;;;3.10;2.45;;;;;;;;;;5067107;28;20041;-68
2024/04/04 09:20:34;;;;;;;2.60;2.20;;;;;;;;;;5061665;28;20025;-68
2024/04/04 09:23:03;;;;;;;3.53;2.17;;;;;;;;;;5063930;28;20103;-69
2024/04/04 09:25:30;;;;;;;2.60;2.20;;;;;;;;;;5067551;28;20071;-67
2024/04/04 09:27:57;;;;;;;4.75;2.47;;;;;;;;;;5065261;28;20029;-69
2024/04/04 09:30:27;;;;;;;5.15;2.83;;;;;;;;;;5067345;28;20543;-69
2024/04/04 09:32:54;;;;;;;4.85;2.67;;;;;;;;;;5068080;28;20023;-69
2024/04/04 09:35:21;;;;;;;8.85;3.20;;;;;;;;;;5067180;28;20073;-69
2024/04/04 09:37:48;;;;;;;6.22;3.67;;;;;;;;;;5068273;28;20032;-70
2024/04/04 09:40:15;;;;;;;6.28;3.33;;;;;;;;;;5067012;28;20029;-68
2024/04/04 09:42:45;;;;;;;4.20;2.67;;;;;;;;;;5071322;28;20056;-70
2024/04/04 09:45:14;;;;;;;3.53;2.75;;;;;;;;;;5071937;28;20392;-71
2024/04/04 09:47:44;;;;;;;7.03;3.33;;;;;;;;;;5073179;28;20577;-69
2024/04/04 09:50:11;;;;;;;4.47;2.80;;;;;;;;;;5076675;28;20040;-69
2024/04/04 09:52:40;;;;;;;3.13;2.45;;;;;;;;;;5087063;28;20089;-68
2024/04/04 09:55:07;;;;;;;5.32;2.50;;;;;;;;;;5071969;28;20503;-69
2024/04/04 09:57:35;;;;;;;3.80;2.33;;;;;;;;;;5073045;28;20029;-68
2024/04/04 10:00:14;;;;;;;2.92;2.30;;;;;;;;;;5074255;28;20356;-69
2024/04/04 10:02:44;;;;;;;3.38;2.72;;;;;;;;;;5068277;28;20043;-67
2024/04/04 10:05:15;;;;;;;2.88;2.00;;;;;;;;;;5073051;28;20044;-68
2024/04/04 10:07:41;;;;;;;2.03;1.83;;;;;;;;;;5089427;28;20043;-68
2024/04/04 10:10:14;;;;;;;4.18;2.08;;;;;;;;;;5050430;28;20483;-66
2024/04/04 10:12:43;;;;;;;2.88;2.00;;;;;;;;;;5063982;28;20428;-66
2024/04/04 10:15:09;;;;;;;2.67;1.90;;;;;;;;;;5058642;28;20031;-66
2024/04/04 10:17:41;;;;;;;2.60;2.10;;;;;;;;;;5061112;28;20028;-66
2024/04/04 10:20:08;;;;;;;3.05;2.05;;;;;;;;;;5063214;28;20056;-66
2024/04/04 10:22:34;;;;;;;3.78;2.40;;;;;;;;;;5060269;28;20107;-66
2024/04/04 10:25:02;;;;;;;3.53;2.65;;;;;;;;;;5060121;28;20036;-67
2024/04/04 10:27:29;;;;;;;2.80;2.22;;;;;;;;;;5060186;28;20028;-63
2024/04/04 10:29:56;;;;;;;2.50;2.20;;;;;;;;;;5055170;28;20034;-62
2024/04/04 10:32:22;;;;;;;2.92;2.10;;;;;;;;;;5058402;28;20110;-63
2024/04/04 10:34:59;;;;;;;3.00;2.58;;;;;;;;;;5059002;28;20025;-64
2024/04/04 10:37:25;;;;;;;5.35;2.33;;;;;;;;;;5064742;28;20035;-63
2024/04/04 10:39:51;;;;;;;2.88;1.85;;;;;;;;;;5060731;28;20028;-62
2024/04/04 10:42:18;;;;;;;2.92;2.15;;;;;;;;;;5058872;28;20029;-62
2024/04/04 10:44:49;;;;;;;3.30;2.33;;;;;;;;;;5060712;28;20036;-63
2024/04/04 10:47:15;;;;;;;2.65;1.95;;;;;;;;;;5064584;28;20029;-62
2024/04/04 10:49:41;;;;;;;3.17;2.10;;;;;;;;;;5060403;28;21420;-63
2024/04/04 10:52:08;;;;;;;2.33;2.00;;;;;;;;;;5054768;28;20388;-62
2024/04/04 10:54:34;;;;;;;2.22;1.90;;;;;;;;;;5056152;28;20078;-63
2024/04/04 10:57:01;;;;;;;4.18;2.58;;;;;;;;;;5061233;28;20470;-67
2024/04/04 10:59:27;;;;;;;5.28;2.30;;;;;;;;;;5060064;28;20055;-67
2024/04/04 11:02:01;;;;;;;2.50;1.92;;;;;;;;;;5059404;28;20060;-66
2024/04/04 11:04:29;;;;;;;3.65;2.08;;;;;;;;;;5058617;28;20521;-66
2024/04/04 11:06:55;;;;;;;4.03;2.10;;;;;;;;;;5061962;28;20129;-63
2024/04/04 11:09:21;;;;;;;2.38;2.17;;;;;;;;;;5061481;28;20720;-63
2024/04/04 11:11:53;;;;;;;4.22;2.10;;;;;;;;;;5055571;28;20035;-63
2024/04/04 11:14:20;;;;;;;2.42;2.10;;;;;;;;;;5060927;28;20415;-63
2024/04/04 11:16:47;;;;;;;1.85;1.70;;;;;;;;;;5058110;28;20016;-64
2024/04/04 11:19:14;;;;;;;4.10;2.13;;;;;;;;;;5059697;28;20395;-64
2024/04/04 11:21:40;;;;;;;5.03;2.35;;;;;;;;;;5059687;28;20056;-63
2024/04/04 11:24:06;;;;;;;3.60;2.47;;;;;;;;;;5061118;28;20119;-63
2024/04/04 11:26:32;;;;;;;3.88;2.20;;;;;;;;;;5059479;28;20162;-63
2024/04/04 11:28:59;;;;;;;4.32;2.53;;;;;;;;;;5062967;28;20029;-63
2024/04/04 11:31:29;;;;;;;4.88;2.00;;;;;;;;;;5055506;28;20033;-67
2024/04/04 11:33:55;;;;;;;4.63;2.35;;;;;;;;;;5056359;28;20075;-66
2024/04/04 11:36:22;;;;;;;2.67;2.15;;;;;;;;;;5059837;28;20542;-66
2024/04/04 11:38:50;;;;;;;6.63;2.10;;;;;;;;;;5070914;28;20066;-69
2024/04/04 11:41:16;;;;;;;5.18;2.05;;;;;;;;;;5065802;28;20044;-67
2024/04/04 11:43:46;;;;;;;6.05;2.38;;;;;;;;;;5066524;28;20054;-62
2024/04/04 11:46:13;;;;;;;7.45;2.38;;;;;;;;;;5063498;28;20025;-63
2024/04/04 11:48:39;;;;;;;2.85;2.33;;;;;;;;;;5070360;28;20103;-66
2024/04/04 11:51:06;;;;;;;1.80;1.67;;;;;;;;;;5060645;28;20413;-67
2024/04/04 11:53:34;;;;;;;6.28;2.45;;;;;;;;;;5066001;28;20020;-67
2024/04/04 11:56:00;;;;;;;2.25;1.85;;;;;;;;;;5072788;28;20027;-67
2024/04/04 11:58:27;;;;;;;5.18;2.33;;;;;;;;;;5065811;28;20054;-68
2024/04/04 12:00:54;;;;;;;2.97;2.03;;;;;;;;;;5069260;28;20025;-67
2024/04/04 12:03:21;;;;;;;2.35;2.08;;;;;;;;;;5071251;28;20400;-68
2024/04/04 12:05:47;;;;;;;5.30;2.67;;;;;;;;;;5072022;28;20100;-68
2024/04/04 12:08:14;;;;;;;4.63;2.20;;;;;;;;;;5073101;28;20035;-71
2024/04/04 12:10:43;;;;;;;4.78;1.98;;;;;;;;;;5077531;28;20103;-68
2024/04/04 12:13:13;;;;;;;5.35;2.63;;;;;;;;;;5073109;28;20074;-68
2024/04/04 12:15:48;;;;;;;3.83;1.85;;;;;;;;;;5068767;28;20029;-68
2024/04/04 12:20:59;;;;;;;4.50;2.47;;;;;;;;;;5060517;28;20509;-67
2024/04/04 12:23:25;;;;;;;3.05;2.47;;;;;;;;;;5066028;28;20016;-67
2024/04/04 12:25:52;;;;;;;5.05;2.22;;;;;;;;;;5067155;28;20459;-68
2024/04/04 12:28:19;;;;;;;5.85;2.65;;;;;;;;;;5071399;28;20661;-68
2024/04/04 12:30:45;;;;;;;2.78;2.40;;;;;;;;;;5066844;28;20028;-68
2024/04/04 12:33:11;;;;;;;2.60;2.40;;;;;;;;;;5067414;28;20044;-68
2024/04/04 12:35:38;;;;;;;3.72;2.60;;;;;;;;;;5068197;28;20455;-67
2024/04/04 12:38:05;;;;;;;5.75;2.08;;;;;;;;;;5065400;28;20533;-68
2024/04/04 12:40:31;;;;;;;4.18;2.35;;;;;;;;;;5062100;28;20484;-62
2024/04/04 12:42:57;;;;;;;3.05;2.75;;;;;;;;;;5056212;28;20641;-62
2024/04/04 12:45:23;;;;;;;2.17;1.98;;;;;;;;;;5054180;28;20116;-63
2024/04/04 12:47:49;;;;;;;2.33;2.13;;;;;;;;;;5054711;28;20078;-63
2024/04/04 12:50:16;;;;;;;2.28;2.05;;;;;;;;;;5055554;28;20013;-63
2024/04/04 12:52:42;;;;;;;3.22;2.25;;;;;;;;;;5060589;28;20418;-62
2024/04/04 12:55:09;;;;;;;4.03;2.38;;;;;;;;;;5062325;28;20027;-63
2024/04/04 12:57:35;;;;;;;2.10;1.90;;;;;;;;;;5062721;28;20086;-63
2024/04/04 13:00:01;;;;;;;2.15;1.90;;;;;;;;;;5059014;28;20404;-69
2024/04/04 13:02:27;;;;;;;1.75;1.60;;;;;;;;;;5070903;28;20048;-69
2024/04/04 13:04:55;;;;;;;2.10;1.90;;;;;;;;;;5073397;28;20203;-63
2024/04/04 13:07:21;;;;;;;3.58;1.83;;;;;;;;;;5063905;28;20024;-63
2024/04/04 13:09:47;;;;;;;2.05;1.83;;;;;;;;;;5050022;28;20041;-63
2024/04/04 13:12:13;;;;;;;3.05;1.63;;;;;;;;;;5057918;28;20119;-63
2024/04/04 13:14:40;;;;;;;2.25;1.90;;;;;;;;;;5056437;28;20059;-64
2024/04/04 13:17:06;;;;;;;2.40;1.40;;;;;;;;;;5067879;28;20025;-64
2024/04/04 13:19:32;;;;;;;1.73;1.63;;;;;;;;;;5062437;28;20298;-64
2024/04/04 13:21:59;;;;;;;1.60;1.50;;;;;;;;;;5058015;28;20797;-65
2024/04/04 13:24:25;;;;;;;3.35;1.58;;;;;;;;;;5061301;28;20434;-65
2024/04/04 13:26:51;;;;;;;1.60;1.50;;;;;;;;;;5063338;28;20074;-65
2024/04/04 13:29:17;;;;;;;2.30;1.83;;;;;;;;;;5061359;28;20520;-64
2024/04/04 13:31:44;;;;;;;1.63;1.52;;;;;;;;;;5055160;28;20036;-65
2024/04/04 13:34:10;;;;;;;1.63;1.52;;;;;;;;;;5072072;28;20028;-70
2024/04/04 13:36:36;;;;;;;5.47;1.50;;;;;;;;;;5070973;28;20066;-70
2024/04/04 13:39:02;;;;;;;2.17;2.00;;;;;;;;;;5070077;28;20021;-70
2024/04/04 13:41:29;;;;;;;2.10;1.67;;;;;;;;;;5072117;28;20052;-70
2024/04/04 13:43:55;;;;;;;1.63;1.52;;;;;;;;;;5079944;28;20477;-70
2024/04/04 13:46:22;;;;;;;1.55;1.45;;;;;;;;;;5061948;28;20021;-69
2024/04/04 13:48:48;;;;;;;2.13;1.65;;;;;;;;;;5064789;28;20138;-69
2024/04/04 13:51:14;;;;;;;2.35;1.52;;;;;;;;;;5065789;28;20039;-69
2024/04/04 13:53:40;;;;;;;3.42;1.90;;;;;;;;;;5051402;28;20027;-70
2024/04/04 13:56:07;;;;;;;1.50;1.40;;;;;;;;;;5062808;28;20021;-64
2024/04/04 13:58:33;;;;;;;3.22;2.03;;;;;;;;;;5060564;28;20031;-64
2024/04/04 14:01:00;;;;;;;2.35;1.58;;;;;;;;;;5060139;28;20025;-64
2024/04/04 14:03:27;;;;;;;1.48;1.38;;;;;;;;;;5076075;28;20458;-69
2024/04/04 14:05:53;;;;;;;1.52;1.42;;;;;;;;;;5073844;28;20016;-64
2024/04/04 14:08:19;;;;;;;6.97;2.00;;;;;;;;;;5060121;28;20025;-64
2024/04/04 14:10:45;;;;;;;3.85;2.13;;;;;;;;;;5051680;28;20032;-64
2024/04/04 14:13:12;;;;;;;2.03;1.55;;;;;;;;;;5057601;28;20033;-64
2024/04/04 14:15:38;;;;;;;1.75;1.65;;;;;;;;;;5071875;28;20043;-66
2024/04/04 14:18:05;;;;;;;1.60;1.50;;;;;;;;;;5054635;28;20231;-68
2024/04/04 14:20:31;;;;;;;6.95;1.50;;;;;;;;;;5057224;28;20060;-70
2024/04/04 14:22:58;;;;;;;1.92;1.70;;;;;;;;;;5060801;28;20060;-70
2024/04/04 14:25:25;;;;;;;3.78;1.90;;;;;;;;;;5060014;28;20024;-67
2024/04/04 14:27:51;;;;;;;3.13;2.40;;;;;;;;;;5060361;28;20130;-68
2024/04/04 14:30:18;;;;;;;4.63;2.25;;;;;;;;;;5067853;28;20490;-68
2024/04/04 14:32:44;;;;;;;3.08;1.60;;;;;;;;;;5061534;28;20082;-63
2024/04/04 14:35:11;;;;;;;2.10;1.90;;;;;;;;;;5057089;28;20025;-63
2024/04/04 14:37:37;;;;;;;7.32;2.58;;;;;;;;;;5057731;28;20124;-63
2024/04/04 14:40:05;;;;;;;2.58;1.50;;;;;;;;;;5064272;28;20487;-67
2024/04/04 14:42:31;;;;;;;1.67;1.58;;;;;;;;;;5061153;28;20046;-67